Česky Dansk Deutsch English Español Suomi Français Magyar Italiano Nederlands norsk Polski Português svenska Türkçe

 

Het Weer

Maputo / Mavalane (Mozambique)

15:00, 21 augustus 2016 (GMT)

NWNNE
WE
SWSSE
Home            
Maputo / Mavalane Manzini / Matsapa Airport Xai Xai Nelspruit Hoedspruit Carolina Phalaborwa Ermelo Vryheid Ulundi Richard Bay Tzaneen Newcastle Witbank Standerton Inhambane Pietersburg Civil Pietersburg Ladysmith Greytown Springs Frankfort Johannesburg International Airport

Om een weerknop op uw website of weblog te plaatsen, copieer onderstaande code en plak die in uw pagina. In het eerste vakje staat HTML-code, in het tweede vakje UBB-code.


Add to Google

Details

Wind speed:5 bf, 16 kn, 8.2 m/s, 18.4 miles/h, 29.6 km/h
Wind direction:ENE, 070°
Visibility:Greater than 10000 m, 10 km, 32800 ft, 6.2 miles
Clouds:Ein wenig bewölkt at 2500 ft, 762 m
Temperature:24°C, 75°F
Gefühlte Temperatur:24°C, 76°F
Dew-point:20°C, 68°F
Atmospheric pressure:1011 hPa, 758.3 mmHg, 29.85 inHg, 0.998 atm
Relative humidity:78.4 %
METAR:FQMA 211500Z 07016KT 9999 FEW025 24/20 Q1011 NOSIG

Snelkoppelingen

Actuele weersinformatie van de hele wereld. Voeg locaties toe met het plus (+) symbool. Deze snelkoppelingen kunnen worden toegevoegd aan Google.

Lid van de Technetium groep

website free tracking
StatCounter NetStat W3C Validator

18-10-2018 04:38:38
astro.technetium.be money.technetium.be phote.technetium.be tafeltennistafel.technetium.be www.ligfiets.net